Time;durP1;ratioP1;P1;durP2;ratioP2;P2;SDS_P1;SDS_P2;PMS_P1;PMS_P2;Temp;Humidity;BMP_temperature;BMP_pressure;BME280_temperature;BME280_humidity;BME280_pressure;Samples;Min_cycle;Max_cycle;Signal;HPM_P1;HPM_P2
2021/12/23 00:01:04;;;;;;;46.03;26.15;;;;;;;-2.61;100.00;101719.72;4909164;29;20062;-70
2021/12/23 00:03:30;;;;;;;43.13;25.88;;;;;;;-2.56;100.00;101707.03;4875971;29;20086;-70
2021/12/23 00:05:55;;;;;;;45.55;26.48;;;;;;;-2.58;100.00;101703.69;4908790;29;20043;-70
2021/12/23 00:08:21;;;;;;;46.88;27.05;;;;;;;-2.61;100.00;101710.00;4891032;29;20499;-69
2021/12/23 00:10:46;;;;;;;47.13;26.00;;;;;;;-2.54;100.00;101700.72;4907012;29;20046;-69
2021/12/23 00:13:12;;;;;;;42.83;25.83;;;;;;;-2.50;100.00;101696.06;4907942;29;20032;-70
2021/12/23 00:16:00;;;;;;;47.72;26.70;;;;;;;-2.54;100.00;101695.44;4876744;29;20106;-71
2021/12/23 00:23:41;;;;;;;51.22;26.73;;;;;;;-2.44;100.00;101679.81;4906663;29;20118;-70
2021/12/23 00:26:07;;;;;;;50.65;27.33;;;;;;;-2.43;100.00;101682.34;4895835;28;20047;-70
2021/12/23 00:28:33;;;;;;;46.22;26.48;;;;;;;-2.41;100.00;101683.09;4905609;29;20040;-70
2021/12/23 00:30:59;;;;;;;49.38;27.33;;;;;;;-2.44;100.00;101661.34;4908010;29;20077;-70
2021/12/23 00:33:25;;;;;;;42.50;24.90;;;;;;;-2.43;100.00;101665.66;4892966;28;20087;-69
2021/12/23 00:35:53;;;;;;;44.28;25.45;;;;;;;-2.41;100.00;101655.84;4907860;29;20628;-70
2021/12/23 00:38:27;;;;;;;51.85;26.60;;;;;;;-2.45;100.00;101655.22;4894190;28;20043;-70
2021/12/23 00:40:53;;;;;;;46.42;25.10;;;;;;;-2.37;100.00;101646.75;4908083;29;20040;-70
2021/12/23 00:43:19;;;;;;;46.47;25.90;;;;;;;-2.31;100.00;101643.69;4876079;29;20553;-70
2021/12/23 00:45:45;;;;;;;49.97;26.90;;;;;;;-2.29;100.00;101636.50;4872932;29;20044;-70
2021/12/23 00:48:11;;;;;;;49.65;26.27;;;;;;;-2.30;100.00;101620.78;4892148;29;20038;-69
2021/12/23 00:50:36;;;;;;;50.13;25.60;;;;;;;-2.26;100.00;101620.44;4872779;29;20051;-69
2021/12/23 00:53:06;;;;;;;46.85;26.42;;;;;;;-2.29;100.00;101615.38;4888589;29;20161;-69
2021/12/23 00:55:32;;;;;;;47.70;26.20;;;;;;;-2.26;100.00;101625.72;4903019;28;20574;-70
2021/12/23 00:57:59;;;;;;;42.47;24.02;;;;;;;-2.26;100.00;101625.72;4880098;29;20058;-70
2021/12/23 01:00:25;;;;;;;45.78;26.17;;;;;;;-2.22;100.00;101621.91;4907025;28;20156;-70
2021/12/23 01:02:50;;;;;;;37.83;22.95;;;;;;;-2.23;100.00;101620.22;4887805;29;20241;-70
2021/12/23 01:05:18;;;;;;;44.50;24.70;;;;;;;-2.11;100.00;101620.28;4906294;29;20503;-69
2021/12/23 01:07:44;;;;;;;45.80;23.30;;;;;;;-2.09;100.00;101621.03;4885207;29;23848;-70
2021/12/23 01:10:10;;;;;;;44.63;23.80;;;;;;;-2.07;100.00;101613.81;4896209;29;20145;-70
2021/12/23 01:12:45;;;;;;;41.97;24.00;;;;;;;-2.02;100.00;101633.66;4890871;29;20039;-70
2021/12/23 01:15:16;;;;;;;38.35;22.70;;;;;;;-1.98;100.00;101634.28;4875405;29;20981;-70
2021/12/23 01:20:51;;;;;;;44.20;23.50;;;;;;;-2.00;100.00;101636.19;4874589;29;20053;-70
2021/12/23 01:23:21;;;;;;;39.97;23.20;;;;;;;-2.01;100.00;101645.91;4877251;29;22865;-70
2021/12/23 01:25:47;;;;;;;44.30;23.27;;;;;;;-2.05;100.00;101648.88;4884804;28;20070;-70
2021/12/23 01:28:13;;;;;;;41.45;24.27;;;;;;;-1.96;100.00;101640.31;4878570;29;20411;-70
2021/12/23 01:30:38;;;;;;;39.58;23.38;;;;;;;-1.96;100.00;101642.94;4872580;29;20390;-69
2021/12/23 01:33:05;;;;;;;37.95;22.60;;;;;;;-1.94;100.00;101641.03;4890005;28;20056;-70
2021/12/23 01:35:31;;;;;;;42.53;24.52;;;;;;;-1.92;100.00;101634.69;4906138;28;22847;-70
2021/12/23 01:37:56;;;;;;;39.65;24.05;;;;;;;-1.95;100.00;101641.97;4900062;28;20043;-70
2021/12/23 01:40:25;;;;;;;40.13;23.95;;;;;;;-1.90;100.00;101641.63;4895363;28;20825;-69
2021/12/23 01:42:52;;;;;;;40.20;24.40;;;;;;;-1.85;100.00;101632.44;4906364;28;20039;-70
2021/12/23 01:45:20;;;;;;;37.50;23.17;;;;;;;-1.88;100.00;101640.56;4889628;29;20098;-70
2021/12/23 01:47:46;;;;;;;39.30;24.45;;;;;;;-1.93;100.00;101622.44;4902904;28;20042;-70
2021/12/23 01:50:15;;;;;;;38.42;24.02;;;;;;;-1.83;100.00;101613.81;4881465;29;22293;-70
2021/12/23 01:52:41;;;;;;;47.95;25.27;;;;;;;-1.72;100.00;101596.25;4895480;29;20158;-69
2021/12/23 01:55:08;;;;;;;40.88;22.80;;;;;;;-1.65;100.00;101571.97;4904960;29;22198;-70
2021/12/23 01:57:34;;;;;;;40.20;24.33;;;;;;;-1.74;100.00;101547.94;4890714;28;20052;-70
2021/12/23 02:00:01;;;;;;;39.85;23.90;;;;;;;-1.75;100.00;101527.78;4890618;29;20074;-70
2021/12/23 02:02:26;;;;;;;41.97;23.98;;;;;;;-1.73;100.00;101506.53;4900242;28;20062;-70
2021/12/23 02:04:52;;;;;;;40.08;23.15;;;;;;;-1.63;100.00;101472.34;4896128;29;20534;-70
2021/12/23 02:07:18;;;;;;;39.88;23.95;;;;;;;-1.65;100.00;101446.03;4906853;29;20055;-70
2021/12/23 02:09:44;;;;;;;41.13;23.00;;;;;;;-1.63;100.00;101427.41;4890313;29;20047;-70
2021/12/23 02:12:09;;;;;;;48.65;23.83;;;;;;;-1.61;100.00;101399.94;4905642;29;20381;-70
2021/12/23 02:14:35;;;;;;;35.22;21.35;;;;;;;-1.61;100.00;101338.34;4881984;29;20052;-69
2021/12/23 02:17:00;;;;;;;37.22;22.80;;;;;;;-1.66;100.00;101319.34;4896768;29;20110;-69
2021/12/23 02:19:26;;;;;;;43.15;22.10;;;;;;;-1.66;100.00;101333.41;4905173;29;20167;-69
2021/12/23 02:21:52;;;;;;;37.25;22.48;;;;;;;-1.63;100.00;101342.88;4873722;29;20043;-69
2021/12/23 02:24:17;;;;;;;41.88;22.23;;;;;;;-1.63;100.00;101444.09;4904452;28;20102;-70
2021/12/23 02:26:43;;;;;;;42.75;22.88;;;;;;;-1.58;100.00;101425.25;4880419;29;20081;-70
2021/12/23 02:29:09;;;;;;;40.63;21.67;;;;;;;-1.60;100.00;101432.47;4900133;29;20046;-70
2021/12/23 02:31:35;;;;;;;40.80;22.65;;;;;;;-1.57;100.00;101445.44;4905687;29;24681;-70
2021/12/23 02:34:01;;;;;;;36.63;22.40;;;;;;;-1.53;100.00;101452.16;4891036;29;20058;-70
2021/12/23 02:36:26;;;;;;;38.40;22.60;;;;;;;-1.52;100.00;101457.31;4906611;29;20035;-70
2021/12/23 02:38:53;;;;;;;34.50;20.92;;;;;;;-1.46;100.00;101462.13;4891135;29;20050;-70
2021/12/23 02:41:18;;;;;;;36.58;20.85;;;;;;;-1.48;100.00;101460.56;4888115;29;20027;-70
2021/12/23 02:43:44;;;;;;;37.58;22.17;;;;;;;-1.43;100.00;101469.00;4888829;29;20054;-70
2021/12/23 02:46:09;;;;;;;36.85;22.30;;;;;;;-1.45;100.00;101465.63;4887573;28;20146;-70
2021/12/23 02:48:37;;;;;;;33.30;20.95;;;;;;;-1.38;100.00;101472.09;4887630;29;20043;-70
2021/12/23 02:51:09;;;;;;;37.40;21.38;;;;;;;-1.38;100.00;101464.16;4888801;29;20050;-70
2021/12/23 02:53:35;;;;;;;38.53;22.08;;;;;;;-1.34;100.00;101467.41;4905093;29;20739;-70
2021/12/23 02:56:03;;;;;;;38.35;21.80;;;;;;;-1.38;100.00;101442.19;4887048;29;20067;-69
2021/12/23 02:58:29;;;;;;;34.83;21.15;;;;;;;-1.46;100.00;101446.28;4873903;29;20150;-69
2021/12/23 03:00:56;;;;;;;40.25;21.58;;;;;;;-1.40;100.00;101444.09;4905105;29;20078;-69
2021/12/23 03:03:22;;;;;;;34.75;20.25;;;;;;;-1.44;100.00;101432.94;4860424;29;20066;-69
2021/12/23 03:05:53;;;;;;;55.38;24.88;;;;;;;-1.48;100.00;101421.75;4874698;29;20492;-69
2021/12/23 03:08:33;;;;;;;32.53;20.58;;;;;;;-1.46;100.00;101413.72;4896107;28;20035;-69
2021/12/23 03:10:59;;;;;;;38.22;21.48;;;;;;;-1.50;100.00;101413.13;4882030;29;20051;-69
2021/12/23 03:13:25;;;;;;;36.78;22.23;;;;;;;-1.51;100.00;101410.59;4902832;29;20042;-69
2021/12/23 03:15:50;;;;;;;41.10;21.15;;;;;;;-1.51;100.00;101389.47;4876952;29;20095;-69
2021/12/23 03:18:16;;;;;;;32.58;20.02;;;;;;;-1.53;100.00;101375.53;4905089;29;20484;-69
2021/12/23 03:20:41;;;;;;;37.25;21.98;;;;;;;-1.53;100.00;101360.53;4898575;29;20058;-69
2021/12/23 03:23:07;;;;;;;37.67;21.95;;;;;;;-1.50;100.00;101364.75;4892950;29;20043;-69
2021/12/23 03:25:32;;;;;;;35.25;21.17;;;;;;;-1.53;100.00;101354.41;4904874;29;20050;-69
2021/12/23 03:27:58;;;;;;;37.42;23.10;;;;;;;-1.55;100.00;101340.47;4889837;28;20523;-69
2021/12/23 03:30:23;;;;;;;37.78;21.60;;;;;;;-1.61;100.00;101347.09;4888756;29;20038;-69
2021/12/23 03:32:49;;;;;;;36.50;21.58;;;;;;;-1.62;100.00;101340.09;4897145;29;20051;-69
2021/12/23 03:35:16;;;;;;;41.22;22.67;;;;;;;-1.66;100.00;101335.19;4862658;29;20138;-69
2021/12/23 03:37:41;;;;;;;35.65;21.17;;;;;;;-1.58;100.00;101327.50;4903221;29;20122;-69
2021/12/23 03:40:07;;;;;;;40.03;21.35;;;;;;;-1.56;100.00;101320.31;4887179;29;20051;-69
2021/12/23 03:42:33;;;;;;;36.30;20.30;;;;;;;-1.45;100.00;101310.53;4903953;29;20062;-69
2021/12/23 03:44:58;;;;;;;36.45;22.05;;;;;;;-1.50;100.00;101298.69;4889552;29;20039;-69
2021/12/23 03:47:24;;;;;;;32.58;21.50;;;;;;;-1.47;100.00;101296.63;4887622;29;20075;-69
2021/12/23 03:49:49;;;;;;;42.05;22.30;;;;;;;-1.48;100.00;101299.38;4904819;29;20408;-69
2021/12/23 03:52:15;;;;;;;33.25;21.98;;;;;;;-1.48;100.00;101299.38;4891217;28;20131;-69
2021/12/23 03:54:40;;;;;;;35.50;20.50;;;;;;;-1.46;100.00;101298.31;4905420;29;20042;-69
2021/12/23 03:57:06;;;;;;;36.80;21.08;;;;;;;-1.51;100.00;101294.34;4889070;28;20139;-69
2021/12/23 03:59:31;;;;;;;38.97;21.77;;;;;;;-1.47;100.00;101301.91;4907282;29;20131;-69
2021/12/23 04:01:57;;;;;;;37.63;20.80;;;;;;;-1.51;100.00;101297.84;4907743;29;20709;-68
2021/12/23 04:04:22;;;;;;;33.78;21.42;;;;;;;-1.53;100.00;101280.44;4860142;29;20044;-69
2021/12/23 04:06:48;;;;;;;34.97;21.75;;;;;;;-1.49;100.00;101271.28;4906151;28;20723;-69
2021/12/23 04:09:14;;;;;;;37.40;20.95;;;;;;;-1.43;100.00;101262.88;4888763;28;20107;-69
2021/12/23 04:11:39;;;;;;;35.28;20.65;;;;;;;-1.42;100.00;101261.06;4890824;29;20063;-69
2021/12/23 04:14:04;;;;;;;31.38;20.08;;;;;;;-1.36;100.00;101258.75;4892452;29;20105;-69
2021/12/23 04:16:30;;;;;;;36.90;21.73;;;;;;;-1.34;100.00;101258.63;4873415;29;20051;-69
2021/12/23 04:18:56;;;;;;;36.72;21.15;;;;;;;-1.28;100.00;101253.69;4907861;29;20036;-69
2021/12/23 04:21:22;;;;;;;36.72;21.25;;;;;;;-1.30;100.00;101268.84;4871934;29;23867;-69
2021/12/23 04:23:47;;;;;;;32.08;20.58;;;;;;;-1.26;100.00;101272.91;4908681;29;20035;-70
2021/12/23 04:26:13;;;;;;;38.00;21.77;;;;;;;-1.23;100.00;101267.38;4906366;28;20130;-69
2021/12/23 04:28:46;;;;;;;39.63;21.50;;;;;;;-1.23;100.00;101271.78;4873344;29;20055;-70
2021/12/23 04:31:16;;;;;;;42.75;22.10;;;;;;;-1.18;100.00;101263.50;4895276;29;20027;-70
2021/12/23 04:33:42;;;;;;;35.13;20.92;;;;;;;-1.15;100.00;101264.09;4888408;28;20063;-70
2021/12/23 04:36:08;;;;;;;32.67;20.52;;;;;;;-1.12;100.00;101265.63;4907880;29;20054;-70
2021/12/23 04:38:38;;;;;;;35.50;19.35;;;;;;;-1.06;100.00;101265.13;4903435;29;20804;-70
2021/12/23 04:41:04;;;;;;;39.00;20.95;;;;;;;-0.99;100.00;101253.06;4880263;29;20058;-70
2021/12/23 04:43:29;;;;;;;32.63;19.42;;;;;;;-0.97;100.00;101253.78;4906800;29;20070;-70
2021/12/23 04:45:54;;;;;;;33.00;19.77;;;;;;;-0.97;100.00;101251.16;4890637;28;20178;-70
2021/12/23 04:48:20;;;;;;;33.20;19.38;;;;;;;-0.98;100.00;101242.38;4907798;29;20171;-70
2021/12/23 04:50:45;;;;;;;36.22;21.13;;;;;;;-0.99;100.00;101245.13;4892245;29;20043;-70
2021/12/23 04:53:11;;;;;;;36.35;21.35;;;;;;;-1.01;100.00;101252.38;4897691;29;20062;-70
2021/12/23 04:55:36;;;;;;;38.08;22.00;;;;;;;-0.93;100.00;101249.09;4907848;29;20047;-70
2021/12/23 04:58:02;;;;;;;33.55;20.00;;;;;;;-0.91;100.00;101252.41;4891261;29;20063;-70
2021/12/23 05:00:27;;;;;;;30.65;19.00;;;;;;;-0.91;100.00;101245.34;4907805;29;20201;-69
2021/12/23 05:02:53;;;;;;;31.85;20.48;;;;;;;-0.92;100.00;101242.81;4884630;29;20039;-70
2021/12/23 05:05:18;;;;;;;38.95;21.35;;;;;;;-0.95;100.00;101249.19;4898103;29;20756;-70
2021/12/23 05:07:45;;;;;;;37.20;21.45;;;;;;;-1.05;100.00;101249.16;4907685;29;20081;-70
2021/12/23 05:10:11;;;;;;;32.42;21.50;;;;;;;-1.02;100.00;101258.59;4891417;28;20055;-70
2021/12/23 05:12:43;;;;;;;36.30;20.58;;;;;;;-1.06;100.00;101257.19;4890254;29;20883;-70
2021/12/23 05:15:15;;;;;;;32.50;20.60;;;;;;;-1.01;100.00;101249.72;4900859;28;20861;-70
2021/12/23 05:17:41;;;;;;;39.08;23.58;;;;;;;-1.03;100.00;101249.00;4897231;29;20186;-68
2021/12/23 05:20:08;;;;;;;36.03;20.85;;;;;;;-1.02;100.00;101246.25;4889610;29;20031;-67
2021/12/23 05:22:34;;;;;;;36.33;21.33;;;;;;;-0.99;100.00;101239.84;4889990;29;20107;-68
2021/12/23 05:24:59;;;;;;;36.03;21.85;;;;;;;-0.93;100.00;101228.75;4904468;29;20126;-68
2021/12/23 05:27:25;;;;;;;33.38;21.60;;;;;;;-0.89;100.00;101221.41;4882865;29;20051;-68
2021/12/23 05:29:50;;;;;;;35.33;22.30;;;;;;;-0.92;100.00;101217.22;4895681;28;20767;-69
2021/12/23 05:32:16;;;;;;;42.38;20.90;;;;;;;-0.89;100.00;101211.66;4887882;29;20035;-68
2021/12/23 05:34:41;;;;;;;36.88;21.65;;;;;;;-0.94;100.00;101218.31;4891455;29;20145;-68
2021/12/23 05:37:07;;;;;;;39.95;22.90;;;;;;;-0.90;100.00;101223.22;4888759;29;20078;-68
2021/12/23 05:39:32;;;;;;;37.90;21.30;;;;;;;-0.96;100.00;101226.38;4901544;29;20047;-69
2021/12/23 05:41:58;;;;;;;35.17;21.60;;;;;;;-0.96;100.00;101232.50;4895373;29;20058;-68
2021/12/23 05:44:23;;;;;;;32.90;20.15;;;;;;;-0.90;100.00;101225.88;4905142;29;20035;-68
2021/12/23 05:46:49;;;;;;;32.50;20.27;;;;;;;-0.89;100.00;101218.75;4887975;29;22570;-69
2021/12/23 05:49:14;;;;;;;40.22;20.33;;;;;;;-0.90;100.00;101212.63;4906729;29;22662;-68
2021/12/23 05:51:40;;;;;;;33.08;21.23;;;;;;;-0.92;100.00;101190.75;4884141;29;21651;-68
2021/12/23 05:54:05;;;;;;;32.50;20.20;;;;;;;-0.91;100.00;101181.88;4879007;29;20075;-68
2021/12/23 05:56:31;;;;;;;33.08;21.20;;;;;;;-0.92;100.00;101190.75;4905512;29;20653;-68
2021/12/23 05:58:56;;;;;;;35.03;20.83;;;;;;;-0.92;100.00;101209.28;4891226;29;20145;-68
2021/12/23 06:01:22;;;;;;;37.13;20.92;;;;;;;-0.92;100.00;101211.91;4906647;29;20043;-69
2021/12/23 06:03:47;;;;;;;35.50;21.50;;;;;;;-0.89;100.00;101195.78;4889383;28;20047;-69
2021/12/23 06:06:14;;;;;;;33.63;20.67;;;;;;;-0.87;100.00;101193.03;4905646;29;20254;-68
2021/12/23 06:08:40;;;;;;;33.50;20.92;;;;;;;-0.81;100.00;101188.06;4906063;29;20035;-69
2021/12/23 06:11:06;;;;;;;36.78;21.27;;;;;;;-0.84;100.00;101172.47;4873627;29;20063;-69
2021/12/23 06:13:32;;;;;;;31.23;19.70;;;;;;;-0.75;100.00;101161.06;4888496;29;20673;-69
2021/12/23 06:15:57;;;;;;;34.00;20.73;;;;;;;-0.73;100.00;101145.09;4871291;29;20049;-69
2021/12/23 06:18:23;;;;;;;34.33;22.95;;;;;;;-0.67;100.00;101133.13;4887793;29;20035;-69
2021/12/23 06:20:48;;;;;;;34.15;22.02;;;;;;;-0.72;100.00;101118.47;4887568;29;20126;-69
2021/12/23 06:23:14;;;;;;;32.20;19.58;;;;;;;-0.69;100.00;101116.56;4888169;28;20058;-70
2021/12/23 06:25:39;;;;;;;36.03;21.05;;;;;;;-0.66;100.00;101084.53;4873823;29;25271;-70
2021/12/23 06:28:05;;;;;;;33.90;20.98;;;;;;;-0.66;100.00;101089.84;4870517;29;20098;-69
2021/12/23 06:30:30;;;;;;;35.97;20.67;;;;;;;-0.62;100.00;101085.94;4904472;28;20421;-69
2021/12/23 06:32:56;;;;;;;42.90;20.35;;;;;;;-0.58;100.00;101084.69;4892413;29;20042;-69
2021/12/23 06:35:29;;;;;;;37.08;20.92;;;;;;;-0.62;100.00;101086.78;4887521;28;20063;-69
2021/12/23 06:37:55;;;;;;;31.60;19.77;;;;;;;-0.54;100.00;101062.28;4903624;29;20035;-70
2021/12/23 06:40:21;;;;;;;36.30;20.90;;;;;;;-0.63;100.00;101053.38;4877156;29;20058;-69
2021/12/23 06:42:47;;;;;;;34.88;21.52;;;;;;;-0.65;100.00;101043.88;4903747;29;20031;-69
2021/12/23 06:45:13;;;;;;;35.85;21.67;;;;;;;-0.61;100.00;101042.63;4898778;29;20551;-69
2021/12/23 06:47:39;;;;;;;37.00;22.25;;;;;;;-0.64;100.00;101033.16;4893779;29;20051;-69
2021/12/23 06:50:09;;;;;;;39.88;22.17;;;;;;;-0.59;100.00;101016.88;4903431;29;20460;-69
2021/12/23 06:52:36;;;;;;;39.03;20.83;;;;;;;-0.63;100.00;101028.69;4887095;28;20055;-69
2021/12/23 06:55:02;;;;;;;43.53;24.23;;;;;;;-0.54;100.00;101030.53;4887139;29;20059;-69
2021/12/23 06:57:28;;;;;;;37.92;21.45;;;;;;;-0.47;100.00;101030.81;4897782;29;20106;-69
2021/12/23 06:59:53;;;;;;;35.22;21.50;;;;;;;-0.39;100.00;101034.44;4862022;29;20106;-69
2021/12/23 07:02:19;;;;;;;36.80;22.23;;;;;;;-0.52;100.00;101023.31;4887272;29;20038;-70
2021/12/23 07:04:45;;;;;;;39.85;22.90;;;;;;;-0.47;100.00;101026.38;4889917;29;22801;-70
2021/12/23 07:07:12;;;;;;;38.40;23.45;;;;;;;-0.39;100.00;101026.50;4888846;29;20039;-69
2021/12/23 07:09:40;;;;;;;39.90;23.15;;;;;;;-0.37;100.00;101016.63;4899030;28;20055;-70
2021/12/23 07:12:07;;;;;;;40.85;23.52;;;;;;;-0.35;100.00;101024.41;4877748;29;20124;-69
2021/12/23 07:14:33;;;;;;;36.58;23.73;;;;;;;-0.30;100.00;101033.63;4903874;29;22650;-69
2021/12/23 07:16:58;;;;;;;40.03;23.52;;;;;;;-0.30;100.00;101028.34;4890546;29;20059;-69
2021/12/23 07:19:24;;;;;;;40.45;24.17;;;;;;;-0.30;100.00;101017.75;4904614;29;20106;-69
2021/12/23 07:21:49;;;;;;;40.78;24.33;;;;;;;-0.30;100.00;101007.16;4897022;29;20055;-70
2021/12/23 07:24:15;;;;;;;37.65;23.48;;;;;;;-0.33;100.00;101007.44;4864635;29;20035;-69
2021/12/23 07:26:40;;;;;;;42.72;25.33;;;;;;;-0.31;100.00;101004.66;4901328;28;20043;-70
2021/12/23 07:29:06;;;;;;;39.75;25.30;;;;;;;-0.30;100.00;101007.16;4884765;28;20051;-70
2021/12/23 07:31:31;;;;;;;40.83;25.98;;;;;;;-0.35;100.00;101014.69;4883519;29;20399;-69
2021/12/23 07:33:59;;;;;;;42.15;25.10;;;;;;;-0.32;100.00;101009.09;4888245;28;20051;-70
2021/12/23 07:36:27;;;;;;;45.05;25.88;;;;;;;-0.35;100.00;101012.06;4889493;29;20035;-69
2021/12/23 07:38:57;;;;;;;45.50;28.10;;;;;;;-0.41;100.00;101014.41;4907596;29;20079;-69
2021/12/23 07:41:25;;;;;;;42.50;27.08;;;;;;;-0.40;100.00;100997.53;4874197;28;20182;-70
2021/12/23 07:44:04;;;;;;;45.42;26.85;;;;;;;-0.38;100.00;100993.78;4906732;29;20133;-69
2021/12/23 07:46:34;;;;;;;41.08;24.40;;;;;;;-0.38;100.00;100993.78;4888217;29;20085;-69
2021/12/23 07:49:00;;;;;;;44.00;25.05;;;;;;;-0.34;100.00;100991.72;4907373;29;22125;-70
2021/12/23 07:51:26;;;;;;;45.72;26.42;;;;;;;-0.36;100.00;100981.25;4901589;29;20031;-70
2021/12/23 07:53:53;;;;;;;42.03;24.52;;;;;;;-0.38;100.00;100977.91;4878367;29;20066;-69
2021/12/23 07:56:19;;;;;;;41.25;25.38;;;;;;;-0.39;100.00;100968.28;4883606;29;20056;-69
2021/12/23 07:58:45;;;;;;;43.38;25.67;;;;;;;-0.41;100.00;100978.19;4873070;29;20090;-69
2021/12/23 08:01:11;;;;;;;44.70;25.58;;;;;;;-0.44;100.00;100965.22;4904918;29;20447;-69
2021/12/23 08:03:36;;;;;;;42.65;26.00;;;;;;;-0.48;100.00;100998.25;4883713;29;20756;-69
2021/12/23 08:06:02;;;;;;;43.33;25.13;;;;;;;-0.47;100.00;101005.19;4896601;29;20519;-70
2021/12/23 08:08:28;;;;;;;55.45;29.35;;;;;;;-0.47;100.00;101010.50;4908086;28;20066;-70
2021/12/23 08:10:54;;;;;;;41.15;25.10;;;;;;;-0.48;100.00;100987.66;4889566;29;20047;-69
2021/12/23 08:13:19;;;;;;;42.70;25.58;;;;;;;-0.39;100.00;101004.50;4904972;29;20414;-69
2021/12/23 08:15:45;;;;;;;47.55;26.10;;;;;;;-0.43;100.00;101009.22;4900527;29;20058;-70
2021/12/23 08:18:10;;;;;;;42.25;25.52;;;;;;;-0.47;100.00;101031.66;4897014;29;20063;-70
2021/12/23 08:20:36;;;;;;;44.33;25.90;;;;;;;-0.49;100.00;101020.38;4907383;28;20924;-70
2021/12/23 08:23:02;;;;;;;42.17;27.40;;;;;;;-0.52;100.00;101013.56;4874951;29;20055;-70
2021/12/23 08:25:28;;;;;;;43.67;26.75;;;;;;;-0.50;100.00;101002.81;4889705;29;20039;-69
2021/12/23 08:27:53;;;;;;;43.80;26.55;;;;;;;-0.41;100.00;101003.81;4900452;29;20375;-70
2021/12/23 08:30:19;;;;;;;46.42;27.80;;;;;;;-0.43;100.00;101003.09;4882021;29;20048;-69
2021/12/23 08:32:46;;;;;;;41.05;24.73;;;;;;;-0.43;100.00;100995.16;4889877;29;20058;-70
2021/12/23 08:35:12;;;;;;;44.53;26.70;;;;;;;-0.43;100.00;100997.81;4879493;29;20082;-70
2021/12/23 08:37:40;;;;;;;46.15;27.63;;;;;;;-0.38;100.00;100985.03;4907975;29;20042;-70
2021/12/23 08:40:07;;;;;;;41.08;26.20;;;;;;;-0.36;100.00;100975.94;4891169;28;20608;-70
2021/12/23 08:42:32;;;;;;;45.92;26.48;;;;;;;-0.41;100.00;100982.66;4907891;29;20039;-70
2021/12/23 08:45:05;;;;;;;47.08;27.95;;;;;;;-0.42;100.00;100971.22;4888448;29;20035;-70
2021/12/23 08:47:31;;;;;;;45.10;26.80;;;;;;;-0.43;100.00;100974.00;4888595;28;20090;-70
2021/12/23 08:49:57;;;;;;;46.10;26.52;;;;;;;-0.43;100.00;100966.88;4873557;29;20035;-68
2021/12/23 08:52:22;;;;;;;45.30;27.17;;;;;;;-0.41;100.00;100961.47;4870833;29;20846;-68
2021/12/23 08:54:48;;;;;;;44.05;27.50;;;;;;;-0.41;100.00;100964.94;4889246;29;20035;-69
2021/12/23 08:57:14;;;;;;;50.25;29.23;;;;;;;-0.40;100.00;100958.69;4872139;29;20098;-70
2021/12/23 08:59:40;;;;;;;48.92;28.00;;;;;;;-0.36;100.00;100954.78;4892964;28;20063;-70
2021/12/23 09:02:06;;;;;;;52.38;28.45;;;;;;;-0.38;100.00;100951.44;4905212;29;20515;-70
2021/12/23 09:04:32;;;;;;;44.70;26.88;;;;;;;-0.41;100.00;100949.06;4876619;29;20047;-70
2021/12/23 09:06:57;;;;;;;43.88;26.08;;;;;;;-0.41;100.00;100951.72;4905498;29;20518;-70
2021/12/23 09:09:24;;;;;;;46.00;27.10;;;;;;;-0.33;100.00;100943.91;4900572;28;20046;-69
2021/12/23 09:11:50;;;;;;;53.53;29.17;;;;;;;-0.37;100.00;100942.53;4894001;29;20047;-69
2021/12/23 09:14:16;;;;;;;42.95;26.77;;;;;;;-0.36;100.00;100938.88;4888437;29;20064;-69
2021/12/23 09:16:42;;;;;;;46.67;27.50;;;;;;;-0.32;100.00;100931.50;4890559;29;20052;-68
2021/12/23 09:19:09;;;;;;;48.83;27.33;;;;;;;-0.33;100.00;100935.97;4909069;29;20041;-71
2021/12/23 09:21:35;;;;;;;50.13;28.45;;;;;;;-0.34;100.00;100936.94;4899318;29;20507;-72
2021/12/23 09:24:02;;;;;;;46.03;28.10;;;;;;;-0.33;100.00;100937.78;4897006;29;20044;-71
2021/12/23 09:26:30;;;;;;;51.20;29.77;;;;;;;-0.32;100.00;100934.97;4907111;29;20031;-70
2021/12/23 09:29:14;;;;;;;48.70;28.80;;;;;;;-0.33;100.00;100933.31;4891095;29;20056;-71
2021/12/23 09:34:23;;;;;;;;;;;;;;;-0.33;100.00;100912.16;4892095;28;20139;-72
2021/12/23 09:36:49;;;;;;;46.80;28.00;;;;;;;-0.31;100.00;100915.50;4891115;29;19965;-72
2021/12/23 09:39:14;;;;;;;47.22;28.25;;;;;;;-0.32;100.00;100911.16;4906363;29;20043;-72
2021/12/23 09:41:46;;;;;;;51.75;29.58;;;;;;;-0.34;100.00;100910.47;4891676;29;20051;-70
2021/12/23 09:44:14;;;;;;;53.17;29.48;;;;;;;-0.32;100.00;100903.22;4904787;29;20043;-70
2021/12/23 09:46:40;;;;;;;48.40;29.65;;;;;;;-0.36;100.00;100903.66;4889309;29;20080;-73
2021/12/23 09:49:06;;;;;;;54.22;31.83;;;;;;;-0.43;100.00;100905.19;4904011;28;20043;-71
2021/12/23 09:51:32;;;;;;;55.75;30.45;;;;;;;-0.36;100.00;100906.28;4885581;29;20049;-71
2021/12/23 09:54:00;;;;;;;57.13;31.63;;;;;;;-0.41;100.00;100905.91;4892013;28;20055;-74
2021/12/23 09:56:27;;;;;;;59.75;33.03;;;;;;;-0.38;100.00;100903.81;4888617;29;20059;-74
2021/12/23 09:58:55;;;;;;;58.85;32.75;;;;;;;-0.39;100.00;100898.63;4873077;29;20051;-73
2021/12/23 10:02:08;;;;;;;59.97;34.72;;;;;;;-0.35;100.00;100895.59;4901332;29;20032;-74
2021/12/23 10:05:13;;;;;;;62.15;34.53;;;;;;;-0.35;100.00;100881.50;4893220;29;20051;-73
2021/12/23 10:08:12;;;;;;;62.55;33.90;;;;;;;-0.32;100.00;100882.03;4889135;29;20055;-73
2021/12/23 10:10:52;;;;;;;65.20;35.72;;;;;;;-0.37;100.00;100883.47;4887546;29;20047;-74
2021/12/23 10:32:26;;;;;;;72.90;38.17;;;;;;;-0.26;100.00;100843.59;4893299;29;20086;-76
2021/12/23 10:38:58;;;;;;;68.30;38.08;;;;;;;-0.25;100.00;100839.97;4905378;29;20035;-75
2021/12/23 10:41:38;;;;;;;81.28;40.50;;;;;;;-0.31;100.00;100820.22;4867988;29;21266;-76
2021/12/23 10:44:09;;;;;;;78.28;42.88;;;;;;;-0.33;100.00;100824.78;4889480;29;20151;-78
2021/12/23 10:47:00;;;;;;;76.07;40.80;;;;;;;-0.30;100.00;100811.28;4893956;29;20087;-78
2021/12/23 10:49:58;;;;;;;74.85;41.42;;;;;;;-0.23;100.00;100808.06;4888259;29;20046;-78
2021/12/23 10:52:42;;;;;;;84.60;45.72;;;;;;;-0.28;100.00;100789.94;4873044;29;20404;-78
2021/12/23 11:03:53;;;;;;;86.20;45.53;;;;;;;-0.24;100.00;100762.22;4894967;29;20039;-76
2021/12/23 11:07:02;;;;;;;95.35;48.30;;;;;;;-0.30;100.00;100757.50;4871674;29;20110;-76
2021/12/23 11:09:53;;;;;;;90.90;46.30;;;;;;;-0.26;100.00;100750.94;4876864;29;20032;-77
2021/12/23 11:44:13;;;;;;;100.50;47.70;;;;;;;-0.28;100.00;100698.16;4838032;29;20047;-77
2021/12/23 11:47:06;;;;;;;99.00;47.45;;;;;;;-0.30;100.00;100691.34;4893012;29;20751;-76
2021/12/23 11:53:20;;;;;;;100.90;49.45;;;;;;;-0.32;100.00;100688.81;4883942;29;20075;-75
2021/12/23 11:56:44;;;;;;;107.53;50.55;;;;;;;-0.33;100.00;100681.88;4861248;29;20039;-76
2021/12/23 12:02:32;;;;;;;104.30;50.88;;;;;;;-0.29;100.00;100687.69;4898086;29;20051;-76
2021/12/23 12:05:46;;;;;;;103.63;51.05;;;;;;;-0.29;100.00;100696.47;4876119;29;20097;-78
2021/12/23 12:09:01;;;;;;;105.00;51.97;;;;;;;-0.29;100.00;100703.59;4885798;28;20040;-75
2021/12/23 12:12:16;;;;;;;108.93;50.75;;;;;;;-0.27;100.00;100683.94;4872091;28;20771;-76
2021/12/23 12:15:05;;;;;;;110.07;53.08;;;;;;;-0.25;100.00;100682.00;4913990;28;20028;-77
2021/12/23 12:17:43;;;;;;;102.60;50.53;;;;;;;-0.23;100.00;100681.81;4874107;29;20043;-78
2021/12/23 12:21:04;;;;;;;107.43;52.47;;;;;;;-0.17;100.00;100680.41;4907305;28;20023;-76
2021/12/23 12:23:44;;;;;;;112.82;53.45;;;;;;;-0.10;100.00;100670.91;4889687;29;20105;-75
2021/12/23 12:30:10;;;;;;;106.15;48.40;;;;;;;-0.07;100.00;100657.34;4854015;29;20044;-75
2021/12/23 12:32:38;;;;;;;111.75;53.00;;;;;;;-0.03;100.00;100656.09;4877367;29;20055;-75
2021/12/23 12:35:33;;;;;;;107.57;50.13;;;;;;;-0.01;100.00;100646.16;4880866;29;20209;-76